sensor_id;sensor_type;location;lat;lon;timestamp;temperature;humidity
578;DHT22;275;48.492;9.214;2023-05-07T00:00:41;19.40;36.90
578;DHT22;275;48.492;9.214;2023-05-07T00:03:10;19.40;36.20
578;DHT22;275;48.492;9.214;2023-05-07T00:05:36;19.60;35.60
578;DHT22;275;48.492;9.214;2023-05-07T00:08:04;19.70;36.10
578;DHT22;275;48.492;9.214;2023-05-07T00:10:31;19.70;36.50
578;DHT22;275;48.492;9.214;2023-05-07T00:12:58;19.80;36.60
578;DHT22;275;48.492;9.214;2023-05-07T00:15:25;19.60;37.20
578;DHT22;275;48.492;9.214;2023-05-07T00:17:51;19.40;38.40
578;DHT22;275;48.492;9.214;2023-05-07T00:20:20;19.30;38.30
578;DHT22;275;48.492;9.214;2023-05-07T00:22:46;19.20;38.60
578;DHT22;275;48.492;9.214;2023-05-07T00:25:13;19.20;38.60
578;DHT22;275;48.492;9.214;2023-05-07T00:27:40;19.20;38.50
578;DHT22;275;48.492;9.214;2023-05-07T00:30:07;19.00;39.00
578;DHT22;275;48.492;9.214;2023-05-07T00:32:35;18.70;39.90
578;DHT22;275;48.492;9.214;2023-05-07T00:35:02;19.00;39.80
578;DHT22;275;48.492;9.214;2023-05-07T00:37:30;19.00;39.20
578;DHT22;275;48.492;9.214;2023-05-07T00:39:57;18.80;39.50
578;DHT22;275;48.492;9.214;2023-05-07T00:42:23;18.90;39.20
578;DHT22;275;48.492;9.214;2023-05-07T00:44:50;19.20;39.30
578;DHT22;275;48.492;9.214;2023-05-07T00:47:17;19.40;38.00
578;DHT22;275;48.492;9.214;2023-05-07T00:49:45;19.40;37.80
578;DHT22;275;48.492;9.214;2023-05-07T00:52:14;19.10;37.60
578;DHT22;275;48.492;9.214;2023-05-07T00:54:43;18.70;38.10
578;DHT22;275;48.492;9.214;2023-05-07T00:57:11;18.60;37.90
578;DHT22;275;48.492;9.214;2023-05-07T00:59:38;18.90;37.40
578;DHT22;275;48.492;9.214;2023-05-07T01:02:06;19.00;36.60
578;DHT22;275;48.492;9.214;2023-05-07T01:04:33;19.30;35.80
578;DHT22;275;48.492;9.214;2023-05-07T01:07:00;19.20;35.80
578;DHT22;275;48.492;9.214;2023-05-07T01:09:28;19.10;36.30
578;DHT22;275;48.492;9.214;2023-05-07T01:11:57;19.10;36.50
578;DHT22;275;48.492;9.214;2023-05-07T01:14:25;19.10;36.30
578;DHT22;275;48.492;9.214;2023-05-07T01:16:52;19.30;35.20
578;DHT22;275;48.492;9.214;2023-05-07T01:19:19;19.30;35.20
578;DHT22;275;48.492;9.214;2023-05-07T01:21:48;19.10;35.30
578;DHT22;275;48.492;9.214;2023-05-07T01:24:16;19.00;35.50
578;DHT22;275;48.492;9.214;2023-05-07T01:26:44;19.10;35.30
578;DHT22;275;48.492;9.214;2023-05-07T01:29:11;19.00;35.60
578;DHT22;275;48.492;9.214;2023-05-07T01:31:39;19.10;35.10
578;DHT22;275;48.492;9.214;2023-05-07T01:34:08;19.10;36.20
578;DHT22;275;48.492;9.214;2023-05-07T01:36:38;19.10;37.80
578;DHT22;275;48.492;9.214;2023-05-07T01:39:06;19.20;37.50
578;DHT22;275;48.492;9.214;2023-05-07T01:41:34;18.90;38.00
578;DHT22;275;48.492;9.214;2023-05-07T01:44:01;18.60;39.60
578;DHT22;275;48.492;9.214;2023-05-07T01:46:30;18.40;40.10
578;DHT22;275;48.492;9.214;2023-05-07T01:48:57;18.60;39.90
578;DHT22;275;48.492;9.214;2023-05-07T01:51:24;18.60;39.60
578;DHT22;275;48.492;9.214;2023-05-07T01:53:52;18.40;40.10
578;DHT22;275;48.492;9.214;2023-05-07T01:56:19;18.50;40.60
578;DHT22;275;48.492;9.214;2023-05-07T01:58:48;18.50;39.80
578;DHT22;275;48.492;9.214;2023-05-07T02:01:16;18.30;40.30
578;DHT22;275;48.492;9.214;2023-05-07T02:03:43;18.30;39.90
578;DHT22;275;48.492;9.214;2023-05-07T02:06:10;18.30;40.10
578;DHT22;275;48.492;9.214;2023-05-07T02:08:37;18.20;40.40
578;DHT22;275;48.492;9.214;2023-05-07T02:11:04;18.00;40.60
578;DHT22;275;48.492;9.214;2023-05-07T02:13:34;18.10;40.20
578;DHT22;275;48.492;9.214;2023-05-07T02:16:03;18.10;40.40
578;DHT22;275;48.492;9.214;2023-05-07T02:18:29;17.90;40.60
578;DHT22;275;48.492;9.214;2023-05-07T02:20:57;17.90;40.50
578;DHT22;275;48.492;9.214;2023-05-07T02:23:24;18.00;40.40
578;DHT22;275;48.492;9.214;2023-05-07T02:25:51;18.00;40.30
578;DHT22;275;48.492;9.214;2023-05-07T02:28:18;17.90;40.80
578;DHT22;275;48.492;9.214;2023-05-07T02:30:44;18.00;40.60
578;DHT22;275;48.492;9.214;2023-05-07T02:33:13;17.90;40.80
578;DHT22;275;48.492;9.214;2023-05-07T02:35:39;17.80;41.10
578;DHT22;275;48.492;9.214;2023-05-07T02:38:06;17.90;40.80
578;DHT22;275;48.492;9.214;2023-05-07T02:40:36;17.50;41.90
578;DHT22;275;48.492;9.214;2023-05-07T02:43:04;17.60;41.80
578;DHT22;275;48.492;9.214;2023-05-07T02:45:32;17.60;41.50
578;DHT22;275;48.492;9.214;2023-05-07T02:47:59;17.50;42.50
578;DHT22;275;48.492;9.214;2023-05-07T02:50:27;17.60;41.70
578;DHT22;275;48.492;9.214;2023-05-07T02:52:54;17.60;41.50
578;DHT22;275;48.492;9.214;2023-05-07T02:55:21;17.30;42.10
578;DHT22;275;48.492;9.214;2023-05-07T02:57:47;16.70;44.60
578;DHT22;275;48.492;9.214;2023-05-07T03:00:16;17.00;43.20
578;DHT22;275;48.492;9.214;2023-05-07T03:02:44;17.30;42.10
578;DHT22;275;48.492;9.214;2023-05-07T03:05:11;17.30;41.70
578;DHT22;275;48.492;9.214;2023-05-07T03:07:39;17.20;41.80
578;DHT22;275;48.492;9.214;2023-05-07T03:10:06;17.10;42.20
578;DHT22;275;48.492;9.214;2023-05-07T03:12:34;16.20;44.60
578;DHT22;275;48.492;9.214;2023-05-07T03:15:01;15.90;46.00
578;DHT22;275;48.492;9.214;2023-05-07T03:17:28;15.90;45.90
578;DHT22;275;48.492;9.214;2023-05-07T03:19:54;16.00;45.50
578;DHT22;275;48.492;9.214;2023-05-07T03:22:21;15.70;46.60
578;DHT22;275;48.492;9.214;2023-05-07T03:24:49;16.20;45.40
578;DHT22;275;48.492;9.214;2023-05-07T03:27:16;16.60;43.90
578;DHT22;275;48.492;9.214;2023-05-07T03:29:43;16.80;43.30
578;DHT22;275;48.492;9.214;2023-05-07T03:32:10;16.90;43.20
578;DHT22;275;48.492;9.214;2023-05-07T03:34:36;16.70;43.30
578;DHT22;275;48.492;9.214;2023-05-07T03:37:03;16.80;43.10
578;DHT22;275;48.492;9.214;2023-05-07T03:39:30;17.00;42.40
578;DHT22;275;48.492;9.214;2023-05-07T03:41:58;17.10;42.20
578;DHT22;275;48.492;9.214;2023-05-07T03:44:26;17.10;41.80
578;DHT22;275;48.492;9.214;2023-05-07T03:46:53;16.90;42.60
578;DHT22;275;48.492;9.214;2023-05-07T03:49:19;16.60;43.20
578;DHT22;275;48.492;9.214;2023-05-07T03:51:46;16.70;43.00
578;DHT22;275;48.492;9.214;2023-05-07T03:54:13;16.70;43.20
578;DHT22;275;48.492;9.214;2023-05-07T03:56:40;16.40;43.80
578;DHT22;275;48.492;9.214;2023-05-07T03:59:08;16.50;43.60
578;DHT22;275;48.492;9.214;2023-05-07T04:01:35;16.80;43.10
578;DHT22;275;48.492;9.214;2023-05-07T04:04:02;17.10;42.40
578;DHT22;275;48.492;9.214;2023-05-07T04:06:29;17.20;42.10
578;DHT22;275;48.492;9.214;2023-05-07T04:08:56;17.20;41.90
578;DHT22;275;48.492;9.214;2023-05-07T04:11:23;17.20;42.10
578;DHT22;275;48.492;9.214;2023-05-07T04:13:50;17.10;42.30
578;DHT22;275;48.492;9.214;2023-05-07T04:16:18;17.10;42.50
578;DHT22;275;48.492;9.214;2023-05-07T04:18:45;17.10;42.20
578;DHT22;275;48.492;9.214;2023-05-07T04:21:15;17.20;41.80
578;DHT22;275;48.492;9.214;2023-05-07T04:23:43;17.30;41.50
578;DHT22;275;48.492;9.214;2023-05-07T04:26:10;16.90;42.30
578;DHT22;275;48.492;9.214;2023-05-07T04:28:36;16.80;43.00
578;DHT22;275;48.492;9.214;2023-05-07T04:31:03;16.80;43.10
578;DHT22;275;48.492;9.214;2023-05-07T04:33:31;16.80;43.10
578;DHT22;275;48.492;9.214;2023-05-07T04:36:01;16.90;43.00
578;DHT22;275;48.492;9.214;2023-05-07T04:38:29;17.10;42.40
578;DHT22;275;48.492;9.214;2023-05-07T04:40:56;17.00;42.90
578;DHT22;275;48.492;9.214;2023-05-07T04:43:23;17.10;43.00
578;DHT22;275;48.492;9.214;2023-05-07T04:45:51;17.60;41.70
578;DHT22;275;48.492;9.214;2023-05-07T04:48:17;18.20;40.70
578;DHT22;275;48.492;9.214;2023-05-07T04:50:48;18.80;38.90
578;DHT22;275;48.492;9.214;2023-05-07T04:53:16;19.30;37.10
578;DHT22;275;48.492;9.214;2023-05-07T04:55:43;19.90;35.70
578;DHT22;275;48.492;9.214;2023-05-07T04:58:10;20.30;34.90
578;DHT22;275;48.492;9.214;2023-05-07T05:00:37;20.60;33.80
578;DHT22;275;48.492;9.214;2023-05-07T05:03:05;20.30;34.20
578;DHT22;275;48.492;9.214;2023-05-07T05:05:32;20.40;34.10
578;DHT22;275;48.492;9.214;2023-05-07T05:08:01;20.10;35.00
578;DHT22;275;48.492;9.214;2023-05-07T05:10:27;20.70;33.70
578;DHT22;275;48.492;9.214;2023-05-07T05:12:54;20.80;33.40
578;DHT22;275;48.492;9.214;2023-05-07T05:15:21;21.50;33.00
578;DHT22;275;48.492;9.214;2023-05-07T05:17:48;21.90;31.70
578;DHT22;275;48.492;9.214;2023-05-07T05:20:15;22.40;30.20
578;DHT22;275;48.492;9.214;2023-05-07T05:22:42;22.40;30.00
578;DHT22;275;48.492;9.214;2023-05-07T05:25:10;22.80;29.60
578;DHT22;275;48.492;9.214;2023-05-07T05:27:37;23.10;29.00
578;DHT22;275;48.492;9.214;2023-05-07T05:30:05;22.90;29.30
578;DHT22;275;48.492;9.214;2023-05-07T05:32:32;23.60;28.50
578;DHT22;275;48.492;9.214;2023-05-07T05:34:59;23.60;27.90
578;DHT22;275;48.492;9.214;2023-05-07T05:37:25;23.20;28.60
578;DHT22;275;48.492;9.214;2023-05-07T05:39:52;23.60;28.70
578;DHT22;275;48.492;9.214;2023-05-07T05:42:21;24.10;27.80
578;DHT22;275;48.492;9.214;2023-05-07T05:44:48;24.30;27.40
578;DHT22;275;48.492;9.214;2023-05-07T05:47:15;24.40;27.00
578;DHT22;275;48.492;9.214;2023-05-07T05:49:41;24.20;27.10
578;DHT22;275;48.492;9.214;2023-05-07T05:52:09;23.50;27.70
578;DHT22;275;48.492;9.214;2023-05-07T05:54:36;22.80;28.60
578;DHT22;275;48.492;9.214;2023-05-07T05:57:03;21.50;30.10
578;DHT22;275;48.492;9.214;2023-05-07T05:59:32;20.80;32.00
578;DHT22;275;48.492;9.214;2023-05-07T06:01:59;20.60;32.60
578;DHT22;275;48.492;9.214;2023-05-07T06:04:26;20.50;32.70
578;DHT22;275;48.492;9.214;2023-05-07T06:06:53;20.60;32.60
578;DHT22;275;48.492;9.214;2023-05-07T06:09:20;20.90;32.30
578;DHT22;275;48.492;9.214;2023-05-07T06:11:46;20.80;32.20
578;DHT22;275;48.492;9.214;2023-05-07T06:14:13;20.80;32.20
578;DHT22;275;48.492;9.214;2023-05-07T06:16:41;20.40;33.30
578;DHT22;275;48.492;9.214;2023-05-07T06:19:08;20.00;34.40
578;DHT22;275;48.492;9.214;2023-05-07T06:21:35;20.20;34.00
578;DHT22;275;48.492;9.214;2023-05-07T06:24:02;20.70;32.90
578;DHT22;275;48.492;9.214;2023-05-07T06:26:29;20.90;32.70
578;DHT22;275;48.492;9.214;2023-05-07T06:28:55;21.20;31.90
578;DHT22;275;48.492;9.214;2023-05-07T06:31:22;20.50;33.30
578;DHT22;275;48.492;9.214;2023-05-07T06:33:50;20.40;34.20
578;DHT22;275;48.492;9.214;2023-05-07T06:36:17;20.80;33.40
578;DHT22;275;48.492;9.214;2023-05-07T06:38:44;21.10;32.80
578;DHT22;275;48.492;9.214;2023-05-07T06:41:11;21.30;32.90
578;DHT22;275;48.492;9.214;2023-05-07T06:43:37;21.40;32.60
578;DHT22;275;48.492;9.214;2023-05-07T06:46:04;21.60;32.10
578;DHT22;275;48.492;9.214;2023-05-07T06:48:31;21.60;32.30
578;DHT22;275;48.492;9.214;2023-05-07T06:50:59;21.50;32.30
578;DHT22;275;48.492;9.214;2023-05-07T06:53:27;21.70;32.30
578;DHT22;275;48.492;9.214;2023-05-07T06:55:56;21.70;32.00
578;DHT22;275;48.492;9.214;2023-05-07T06:58:22;22.00;31.30
578;DHT22;275;48.492;9.214;2023-05-07T07:00:49;22.10;31.00
578;DHT22;275;48.492;9.214;2023-05-07T07:03:16;22.00;31.30
578;DHT22;275;48.492;9.214;2023-05-07T07:05:43;22.10;31.40
578;DHT22;275;48.492;9.214;2023-05-07T07:08:11;22.60;30.40
578;DHT22;275;48.492;9.214;2023-05-07T07:10:38;23.00;29.70
578;DHT22;275;48.492;9.214;2023-05-07T07:13:05;23.60;29.20
578;DHT22;275;48.492;9.214;2023-05-07T07:15:31;24.30;28.60
578;DHT22;275;48.492;9.214;2023-05-07T07:17:58;25.10;27.80
578;DHT22;275;48.492;9.214;2023-05-07T07:20:25;26.90;25.60
578;DHT22;275;48.492;9.214;2023-05-07T07:22:52;27.60;24.20
578;DHT22;275;48.492;9.214;2023-05-07T07:25:20;28.30;23.30
578;DHT22;275;48.492;9.214;2023-05-07T07:27:47;28.80;22.40
578;DHT22;275;48.492;9.214;2023-05-07T07:30:14;29.60;21.40
578;DHT22;275;48.492;9.214;2023-05-07T07:32:41;30.10;21.00
578;DHT22;275;48.492;9.214;2023-05-07T07:35:08;31.40;19.50
578;DHT22;275;48.492;9.214;2023-05-07T07:37:35;31.20;19.10
578;DHT22;275;48.492;9.214;2023-05-07T07:40:02;31.10;19.30
578;DHT22;275;48.492;9.214;2023-05-07T07:42:31;32.40;18.10
578;DHT22;275;48.492;9.214;2023-05-07T07:44:58;32.90;17.40
578;DHT22;275;48.492;9.214;2023-05-07T07:47:24;32.80;17.40
578;DHT22;275;48.492;9.214;2023-05-07T07:49:51;32.20;17.80
578;DHT22;275;48.492;9.214;2023-05-07T07:52:18;32.00;17.60
578;DHT22;275;48.492;9.214;2023-05-07T07:54:45;30.90;18.90
578;DHT22;275;48.492;9.214;2023-05-07T07:57:12;29.60;20.20
578;DHT22;275;48.492;9.214;2023-05-07T07:59:40;28.10;22.10
578;DHT22;275;48.492;9.214;2023-05-07T08:02:08;27.70;22.50
578;DHT22;275;48.492;9.214;2023-05-07T08:04:35;27.40;22.70
578;DHT22;275;48.492;9.214;2023-05-07T08:07:02;26.90;23.50
578;DHT22;275;48.492;9.214;2023-05-07T08:09:29;26.50;24.30
578;DHT22;275;48.492;9.214;2023-05-07T08:11:56;26.50;24.10
578;DHT22;275;48.492;9.214;2023-05-07T08:14:23;26.70;24.20
578;DHT22;275;48.492;9.214;2023-05-07T08:16:52;26.30;24.80
578;DHT22;275;48.492;9.214;2023-05-07T08:19:19;25.60;25.90
578;DHT22;275;48.492;9.214;2023-05-07T08:21:47;25.40;26.30
578;DHT22;275;48.492;9.214;2023-05-07T08:24:17;25.80;25.60
578;DHT22;275;48.492;9.214;2023-05-07T08:26:44;26.10;25.50
578;DHT22;275;48.492;9.214;2023-05-07T08:29:11;26.60;25.30
578;DHT22;275;48.492;9.214;2023-05-07T08:31:38;27.40;23.90
578;DHT22;275;48.492;9.214;2023-05-07T08:34:06;27.20;23.90
578;DHT22;275;48.492;9.214;2023-05-07T08:36:33;27.10;24.00
578;DHT22;275;48.492;9.214;2023-05-07T08:39:00;26.70;24.70
578;DHT22;275;48.492;9.214;2023-05-07T08:41:27;25.80;25.90
578;DHT22;275;48.492;9.214;2023-05-07T08:43:58;25.30;26.90
578;DHT22;275;48.492;9.214;2023-05-07T08:46:25;26.50;25.60
578;DHT22;275;48.492;9.214;2023-05-07T08:48:56;27.50;24.40
578;DHT22;275;48.492;9.214;2023-05-07T08:51:25;27.00;24.80
578;DHT22;275;48.492;9.214;2023-05-07T08:53:52;26.60;25.50
578;DHT22;275;48.492;9.214;2023-05-07T08:56:19;26.90;25.40
578;DHT22;275;48.492;9.214;2023-05-07T08:58:47;27.60;24.50
578;DHT22;275;48.492;9.214;2023-05-07T09:01:15;28.80;23.20
578;DHT22;275;48.492;9.214;2023-05-07T09:03:44;30.70;21.60
578;DHT22;275;48.492;9.214;2023-05-07T09:06:12;33.00;18.60
578;DHT22;275;48.492;9.214;2023-05-07T09:08:40;33.70;17.60
578;DHT22;275;48.492;9.214;2023-05-07T09:11:07;33.60;17.50
578;DHT22;275;48.492;9.214;2023-05-07T09:13:35;34.50;16.70
578;DHT22;275;48.492;9.214;2023-05-07T09:16:10;35.40;15.80
578;DHT22;275;48.492;9.214;2023-05-07T09:18:41;36.30;14.70
578;DHT22;275;48.492;9.214;2023-05-07T09:21:10;37.20;13.80
578;DHT22;275;48.492;9.214;2023-05-07T09:23:37;37.00;13.90
578;DHT22;275;48.492;9.214;2023-05-07T09:26:06;36.70;13.60
578;DHT22;275;48.492;9.214;2023-05-07T09:28:38;35.80;14.50
578;DHT22;275;48.492;9.214;2023-05-07T09:31:06;35.60;14.80
578;DHT22;275;48.492;9.214;2023-05-07T09:33:33;36.90;13.50
578;DHT22;275;48.492;9.214;2023-05-07T09:36:02;36.40;13.80
578;DHT22;275;48.492;9.214;2023-05-07T09:38:30;36.10;14.20
578;DHT22;275;48.492;9.214;2023-05-07T09:41:06;37.50;13.20
578;DHT22;275;48.492;9.214;2023-05-07T09:43:34;38.90;11.50
578;DHT22;275;48.492;9.214;2023-05-07T09:46:07;38.50;12.10
578;DHT22;275;48.492;9.214;2023-05-07T09:48:38;38.80;11.70
578;DHT22;275;48.492;9.214;2023-05-07T09:51:11;39.80;10.90
578;DHT22;275;48.492;9.214;2023-05-07T09:53:42;40.30;10.50
578;DHT22;275;48.492;9.214;2023-05-07T09:56:13;40.00;10.60
578;DHT22;275;48.492;9.214;2023-05-07T09:58:41;40.50;10.30
578;DHT22;275;48.492;9.214;2023-05-07T10:01:10;38.70;11.30
578;DHT22;275;48.492;9.214;2023-05-07T10:03:40;38.00;12.00
578;DHT22;275;48.492;9.214;2023-05-07T10:06:08;38.80;11.10
578;DHT22;275;48.492;9.214;2023-05-07T10:08:36;38.80;11.10
578;DHT22;275;48.492;9.214;2023-05-07T10:11:04;39.20;10.80
578;DHT22;275;48.492;9.214;2023-05-07T10:13:32;40.70;9.40
578;DHT22;275;48.492;9.214;2023-05-07T10:16:00;39.80;9.90
578;DHT22;275;48.492;9.214;2023-05-07T10:18:28;39.80;9.60
578;DHT22;275;48.492;9.214;2023-05-07T10:21:04;39.70;9.80
578;DHT22;275;48.492;9.214;2023-05-07T10:23:33;40.60;8.80
578;DHT22;275;48.492;9.214;2023-05-07T10:26:03;42.20;7.90
578;DHT22;275;48.492;9.214;2023-05-07T10:28:36;42.70;6.90
578;DHT22;275;48.492;9.214;2023-05-07T10:31:16;40.00;8.70
578;DHT22;275;48.492;9.214;2023-05-07T10:33:46;40.50;9.10
578;DHT22;275;48.492;9.214;2023-05-07T10:36:16;41.50;7.50
578;DHT22;275;48.492;9.214;2023-05-07T10:38:43;40.00;8.80
578;DHT22;275;48.492;9.214;2023-05-07T10:41:11;39.20;9.60
578;DHT22;275;48.492;9.214;2023-05-07T10:43:41;37.20;11.00
578;DHT22;275;48.492;9.214;2023-05-07T10:46:15;36.00;12.20
578;DHT22;275;48.492;9.214;2023-05-07T10:49:08;38.10;10.10
578;DHT22;275;48.492;9.214;2023-05-07T10:51:37;38.60;9.10
578;DHT22;275;48.492;9.214;2023-05-07T10:54:20;37.20;10.20
578;DHT22;275;48.492;9.214;2023-05-07T10:56:47;32.50;14.20
578;DHT22;275;48.492;9.214;2023-05-07T10:59:33;30.20;16.90
578;DHT22;275;48.492;9.214;2023-05-07T11:02:06;29.30;17.50
578;DHT22;275;48.492;9.214;2023-05-07T11:04:35;29.50;17.40
578;DHT22;275;48.492;9.214;2023-05-07T11:07:25;29.30;17.80
578;DHT22;275;48.492;9.214;2023-05-07T11:09:59;28.50;18.70
578;DHT22;275;48.492;9.214;2023-05-07T11:12:48;27.90;19.60
578;DHT22;275;48.492;9.214;2023-05-07T11:15:37;27.50;20.40
578;DHT22;275;48.492;9.214;2023-05-07T11:18:04;27.80;21.70
578;DHT22;275;48.492;9.214;2023-05-07T11:20:49;27.60;23.20
578;DHT22;275;48.492;9.214;2023-05-07T11:23:57;26.30;25.30
578;DHT22;275;48.492;9.214;2023-05-07T11:26:26;26.40;26.80
578;DHT22;275;48.492;9.214;2023-05-07T11:28:53;26.80;25.90
578;DHT22;275;48.492;9.214;2023-05-07T11:31:24;22.70;40.00
578;DHT22;275;48.492;9.214;2023-05-07T11:33:52;22.00;37.10
578;DHT22;275;48.492;9.214;2023-05-07T11:36:20;23.00;35.70
578;DHT22;275;48.492;9.214;2023-05-07T11:38:47;23.90;31.50
578;DHT22;275;48.492;9.214;2023-05-07T11:41:14;23.80;31.40
578;DHT22;275;48.492;9.214;2023-05-07T11:43:55;23.80;31.30
578;DHT22;275;48.492;9.214;2023-05-07T11:46:23;24.40;35.50
578;DHT22;275;48.492;9.214;2023-05-07T11:48:50;24.10;35.90
578;DHT22;275;48.492;9.214;2023-05-07T11:51:22;24.40;35.10
578;DHT22;275;48.492;9.214;2023-05-07T11:53:51;24.10;35.30
578;DHT22;275;48.492;9.214;2023-05-07T11:56:18;24.00;37.50
578;DHT22;275;48.492;9.214;2023-05-07T11:58:46;24.20;37.90
578;DHT22;275;48.492;9.214;2023-05-07T12:01:14;24.20;35.30
578;DHT22;275;48.492;9.214;2023-05-07T12:03:44;24.10;37.30
578;DHT22;275;48.492;9.214;2023-05-07T12:06:12;24.50;34.20
578;DHT22;275;48.492;9.214;2023-05-07T12:08:40;24.30;36.00
578;DHT22;275;48.492;9.214;2023-05-07T12:11:08;23.10;36.30
578;DHT22;275;48.492;9.214;2023-05-07T12:13:37;22.90;37.10
578;DHT22;275;48.492;9.214;2023-05-07T12:16:05;23.10;36.00
578;DHT22;275;48.492;9.214;2023-05-07T12:18:32;23.60;34.90
578;DHT22;275;48.492;9.214;2023-05-07T12:21:01;23.80;34.50
578;DHT22;275;48.492;9.214;2023-05-07T12:23:29;23.80;34.20
578;DHT22;275;48.492;9.214;2023-05-07T12:25:56;23.70;33.60
578;DHT22;275;48.492;9.214;2023-05-07T12:28:23;24.50;30.40
578;DHT22;275;48.492;9.214;2023-05-07T12:30:50;25.20;29.20
578;DHT22;275;48.492;9.214;2023-05-07T12:33:19;25.10;29.90
578;DHT22;275;48.492;9.214;2023-05-07T12:35:47;24.90;29.80
578;DHT22;275;48.492;9.214;2023-05-07T12:38:17;25.20;28.90
578;DHT22;275;48.492;9.214;2023-05-07T12:40:46;25.20;29.90
578;DHT22;275;48.492;9.214;2023-05-07T12:43:16;25.40;30.40
578;DHT22;275;48.492;9.214;2023-05-07T12:45:44;25.60;30.30
578;DHT22;275;48.492;9.214;2023-05-07T12:48:11;25.50;30.70
578;DHT22;275;48.492;9.214;2023-05-07T12:50:39;25.40;29.30
578;DHT22;275;48.492;9.214;2023-05-07T12:53:06;25.20;29.60
578;DHT22;275;48.492;9.214;2023-05-07T12:55:42;25.10;29.90
578;DHT22;275;48.492;9.214;2023-05-07T12:58:15;24.90;30.20
578;DHT22;275;48.492;9.214;2023-05-07T13:00:43;25.10;29.90
578;DHT22;275;48.492;9.214;2023-05-07T13:03:10;25.00;29.70
578;DHT22;275;48.492;9.214;2023-05-07T13:05:37;25.00;29.80
578;DHT22;275;48.492;9.214;2023-05-07T13:08:04;24.90;32.80
578;DHT22;275;48.492;9.214;2023-05-07T13:10:31;24.80;33.50
578;DHT22;275;48.492;9.214;2023-05-07T13:13:00;24.10;32.90
578;DHT22;275;48.492;9.214;2023-05-07T13:15:27;23.80;34.20
578;DHT22;275;48.492;9.214;2023-05-07T13:17:54;23.30;36.60
578;DHT22;275;48.492;9.214;2023-05-07T13:20:21;22.00;36.20
578;DHT22;275;48.492;9.214;2023-05-07T13:22:48;21.10;38.90
578;DHT22;275;48.492;9.214;2023-05-07T13:25:15;20.70;41.30
578;DHT22;275;48.492;9.214;2023-05-07T13:27:42;20.40;43.50
578;DHT22;275;48.492;9.214;2023-05-07T13:30:10;19.90;45.80
578;DHT22;275;48.492;9.214;2023-05-07T13:32:37;19.60;48.60
578;DHT22;275;48.492;9.214;2023-05-07T13:35:05;19.50;49.00
578;DHT22;275;48.492;9.214;2023-05-07T13:37:32;19.30;50.10
578;DHT22;275;48.492;9.214;2023-05-07T13:39:59;19.10;52.00
578;DHT22;275;48.492;9.214;2023-05-07T13:42:25;19.20;51.90
578;DHT22;275;48.492;9.214;2023-05-07T13:44:52;19.10;52.00
578;DHT22;275;48.492;9.214;2023-05-07T13:47:20;18.80;53.60
578;DHT22;275;48.492;9.214;2023-05-07T13:49:47;19.20;52.20
578;DHT22;275;48.492;9.214;2023-05-07T13:52:15;19.20;51.10
578;DHT22;275;48.492;9.214;2023-05-07T13:54:42;18.80;52.30
578;DHT22;275;48.492;9.214;2023-05-07T13:57:09;18.70;51.80
578;DHT22;275;48.492;9.214;2023-05-07T13:59:35;18.50;52.90
578;DHT22;275;48.492;9.214;2023-05-07T14:02:02;18.40;53.40
578;DHT22;275;48.492;9.214;2023-05-07T14:04:31;18.50;53.50
578;DHT22;275;48.492;9.214;2023-05-07T14:06:57;18.10;54.50
578;DHT22;275;48.492;9.214;2023-05-07T14:09:24;18.30;54.40
578;DHT22;275;48.492;9.214;2023-05-07T14:11:51;18.70;52.50
578;DHT22;275;48.492;9.214;2023-05-07T14:14:18;18.40;53.80
578;DHT22;275;48.492;9.214;2023-05-07T14:16:45;18.90;52.00
578;DHT22;275;48.492;9.214;2023-05-07T14:19:12;19.30;50.70
578;DHT22;275;48.492;9.214;2023-05-07T14:21:41;19.60;48.90
578;DHT22;275;48.492;9.214;2023-05-07T14:24:08;20.10;47.70
578;DHT22;275;48.492;9.214;2023-05-07T14:26:35;20.40;45.70
578;DHT22;275;48.492;9.214;2023-05-07T14:29:02;20.30;45.30
578;DHT22;275;48.492;9.214;2023-05-07T14:31:29;19.80;47.20
578;DHT22;275;48.492;9.214;2023-05-07T14:33:56;19.50;48.80
578;DHT22;275;48.492;9.214;2023-05-07T14:36:25;18.80;51.20
578;DHT22;275;48.492;9.214;2023-05-07T14:38:54;18.70;52.30
578;DHT22;275;48.492;9.214;2023-05-07T14:41:22;19.40;50.70
578;DHT22;275;48.492;9.214;2023-05-07T14:43:49;19.00;52.10
578;DHT22;275;48.492;9.214;2023-05-07T14:46:16;19.20;52.00
578;DHT22;275;48.492;9.214;2023-05-07T14:48:44;18.90;51.50
578;DHT22;275;48.492;9.214;2023-05-07T14:51:11;18.60;52.10
578;DHT22;275;48.492;9.214;2023-05-07T14:53:38;18.50;52.30
578;DHT22;275;48.492;9.214;2023-05-07T14:56:07;18.50;53.50
578;DHT22;275;48.492;9.214;2023-05-07T14:58:34;18.60;53.20
578;DHT22;275;48.492;9.214;2023-05-07T15:01:01;18.90;52.40
578;DHT22;275;48.492;9.214;2023-05-07T15:03:28;19.20;52.20
578;DHT22;275;48.492;9.214;2023-05-07T15:05:55;20.00;50.40
578;DHT22;275;48.492;9.214;2023-05-07T15:08:22;20.20;48.50
578;DHT22;275;48.492;9.214;2023-05-07T15:10:49;20.50;46.30
578;DHT22;275;48.492;9.214;2023-05-07T15:13:17;20.80;46.50
578;DHT22;275;48.492;9.214;2023-05-07T15:15:44;21.20;44.00
578;DHT22;275;48.492;9.214;2023-05-07T15:18:11;21.30;42.20
578;DHT22;275;48.492;9.214;2023-05-07T15:20:38;21.60;43.10
578;DHT22;275;48.492;9.214;2023-05-07T15:23:06;21.90;40.80
578;DHT22;275;48.492;9.214;2023-05-07T15:25:35;22.10;40.60
578;DHT22;275;48.492;9.214;2023-05-07T15:28:02;22.50;38.70
578;DHT22;275;48.492;9.214;2023-05-07T15:30:31;22.50;38.90
578;DHT22;275;48.492;9.214;2023-05-07T15:32:57;22.40;39.00
578;DHT22;275;48.492;9.214;2023-05-07T15:35:25;22.10;40.90
578;DHT22;275;48.492;9.214;2023-05-07T15:37:51;22.10;41.80
578;DHT22;275;48.492;9.214;2023-05-07T15:40:18;22.20;42.00
578;DHT22;275;48.492;9.214;2023-05-07T15:42:45;22.60;41.00
578;DHT22;275;48.492;9.214;2023-05-07T15:45:12;23.00;38.70
578;DHT22;275;48.492;9.214;2023-05-07T15:47:41;23.00;39.80
578;DHT22;275;48.492;9.214;2023-05-07T15:50:08;22.90;39.60
578;DHT22;275;48.492;9.214;2023-05-07T15:52:35;22.40;40.90
578;DHT22;275;48.492;9.214;2023-05-07T15:55:05;21.30;42.10
578;DHT22;275;48.492;9.214;2023-05-07T15:57:32;20.90;43.50
578;DHT22;275;48.492;9.214;2023-05-07T15:59:59;20.80;43.40
578;DHT22;275;48.492;9.214;2023-05-07T16:02:26;21.00;43.30
578;DHT22;275;48.492;9.214;2023-05-07T16:04:54;21.10;42.20
578;DHT22;275;48.492;9.214;2023-05-07T16:07:21;21.00;43.50
578;DHT22;275;48.492;9.214;2023-05-07T16:09:48;20.60;45.20
578;DHT22;275;48.492;9.214;2023-05-07T16:12:15;20.20;47.30
578;DHT22;275;48.492;9.214;2023-05-07T16:14:42;20.80;45.40
578;DHT22;275;48.492;9.214;2023-05-07T16:17:09;21.10;45.80
578;DHT22;275;48.492;9.214;2023-05-07T16:19:36;21.10;45.40
578;DHT22;275;48.492;9.214;2023-05-07T16:22:04;21.50;43.70
578;DHT22;275;48.492;9.214;2023-05-07T16:24:31;21.40;43.60
578;DHT22;275;48.492;9.214;2023-05-07T16:26:58;21.30;43.60
578;DHT22;275;48.492;9.214;2023-05-07T16:29:25;21.50;43.50
578;DHT22;275;48.492;9.214;2023-05-07T16:31:52;21.60;43.10
578;DHT22;275;48.492;9.214;2023-05-07T16:34:19;21.80;43.00
578;DHT22;275;48.492;9.214;2023-05-07T16:36:47;21.50;42.50
578;DHT22;275;48.492;9.214;2023-05-07T16:39:15;21.30;43.70